sensor_id;sensor_type;location;lat;lon;timestamp;pressure;altitude;pressure_sealevel;temperature;humidity
75447;BME280;64024;55.820;37.574;2024-01-11T00:00:34;96909.16;;;17.81;33.41
75447;BME280;64024;55.820;37.574;2024-01-11T00:03:00;96888.91;;;17.75;33.62
75447;BME280;64024;55.820;37.574;2024-01-11T00:05:26;96900.88;;;17.69;33.81
75447;BME280;64024;55.820;37.574;2024-01-11T00:07:52;96890.56;;;17.62;34.06
75447;BME280;64024;55.820;37.574;2024-01-11T00:10:18;96886.94;;;17.58;34.35
75447;BME280;64024;55.820;37.574;2024-01-11T00:12:44;96875.09;;;17.50;34.71
75447;BME280;64024;55.820;37.574;2024-01-11T00:15:10;96867.13;;;17.45;34.78
75447;BME280;64024;55.820;37.574;2024-01-11T00:17:36;96860.03;;;17.40;35.23
75447;BME280;64024;55.820;37.574;2024-01-11T00:20:03;96844.06;;;17.35;35.31
75447;BME280;64024;55.820;37.574;2024-01-11T00:22:29;96839.63;;;17.31;35.55
75447;BME280;64024;55.820;37.574;2024-01-11T00:24:55;96833.59;;;17.25;35.74
75447;BME280;64024;55.820;37.574;2024-01-11T00:27:20;96820.31;;;17.20;35.76
75447;BME280;64024;55.820;37.574;2024-01-11T00:29:46;96815.41;;;17.13;35.89
75447;BME280;64024;55.820;37.574;2024-01-11T00:32:12;96803.69;;;17.09;36.19
75447;BME280;64024;55.820;37.574;2024-01-11T00:34:38;96807.31;;;17.05;36.31
75447;BME280;64024;55.820;37.574;2024-01-11T00:37:04;96792.94;;;17.01;36.39
75447;BME280;64024;55.820;37.574;2024-01-11T00:39:30;96787.69;;;16.96;36.27
75447;BME280;64024;55.820;37.574;2024-01-11T00:41:55;96783.25;;;16.91;36.37
75447;BME280;64024;55.820;37.574;2024-01-11T00:44:21;96761.13;;;16.85;36.45
75447;BME280;64024;55.820;37.574;2024-01-11T00:46:47;96763.19;;;16.80;36.67
75447;BME280;64024;55.820;37.574;2024-01-11T00:49:13;96751.78;;;16.74;36.31
75447;BME280;64024;55.820;37.574;2024-01-11T00:51:38;96743.84;;;16.69;36.39
75447;BME280;64024;55.820;37.574;2024-01-11T00:54:04;96739.41;;;16.64;36.43
75447;BME280;64024;55.820;37.574;2024-01-11T00:56:30;96734.97;;;16.60;36.75
75447;BME280;64024;55.820;37.574;2024-01-11T00:58:56;96724.38;;;16.55;36.82
75447;BME280;64024;55.820;37.574;2024-01-11T01:01:22;96716.44;;;16.50;36.60
75447;BME280;64024;55.820;37.574;2024-01-11T01:03:47;96710.91;;;16.46;36.77
75447;BME280;64024;55.820;37.574;2024-01-11T01:06:13;96703.00;;;16.41;36.76
75447;BME280;64024;55.820;37.574;2024-01-11T01:08:39;96702.81;;;16.37;36.77
75447;BME280;64024;55.820;37.574;2024-01-11T01:11:05;96696.50;;;16.33;36.74
75447;BME280;64024;55.820;37.574;2024-01-11T01:13:30;96681.34;;;16.29;36.65
75447;BME280;64024;55.820;37.574;2024-01-11T01:15:56;96675.78;;;16.25;37.02
75447;BME280;64024;55.820;37.574;2024-01-11T01:18:22;96678.59;;;16.20;37.11
75447;BME280;64024;55.820;37.574;2024-01-11T01:20:48;96665.03;;;16.16;37.05
75447;BME280;64024;55.820;37.574;2024-01-11T01:23:13;96655.25;;;16.12;37.26
75447;BME280;64024;55.820;37.574;2024-01-11T01:25:39;96644.34;;;16.08;36.77
75447;BME280;64024;55.820;37.574;2024-01-11T01:28:05;96641.00;;;16.03;37.15
75447;BME280;64024;55.820;37.574;2024-01-11T01:30:31;96630.91;;;16.00;37.20
75447;BME280;64024;55.820;37.574;2024-01-11T01:32:57;96623.50;;;15.97;37.20
75447;BME280;64024;55.820;37.574;2024-01-11T01:35:23;96617.97;;;15.93;36.95
75447;BME280;64024;55.820;37.574;2024-01-11T01:37:48;96623.13;;;15.89;37.20
75447;BME280;64024;55.820;37.574;2024-01-11T01:40:14;96607.19;;;15.84;37.38
75447;BME280;64024;55.820;37.574;2024-01-11T01:42:44;96594.41;;;15.81;37.32
75447;BME280;64024;55.820;37.574;2024-01-11T01:45:10;96599.28;;;15.79;37.15
75447;BME280;64024;55.820;37.574;2024-01-11T01:47:45;96584.63;;;15.77;37.23
75447;BME280;64024;55.820;37.574;2024-01-11T01:50:11;96581.75;;;15.73;37.16
75447;BME280;64024;55.820;37.574;2024-01-11T01:52:39;96563.94;;;15.69;36.96
75447;BME280;64024;55.820;37.574;2024-01-11T01:55:06;96560.75;;;15.66;37.30
75447;BME280;64024;55.820;37.574;2024-01-11T01:57:35;96562.97;;;15.64;37.23
75447;BME280;64024;55.820;37.574;2024-01-11T02:00:02;96551.25;;;15.60;37.48
75447;BME280;64024;55.820;37.574;2024-01-11T02:02:31;96543.53;;;15.59;37.29
75447;BME280;64024;55.820;37.574;2024-01-11T02:04:58;96545.41;;;15.58;37.68
75447;BME280;64024;55.820;37.574;2024-01-11T02:07:24;96508.44;;;15.60;37.51
75447;BME280;64024;55.820;37.574;2024-01-11T02:09:51;96532.72;;;15.64;37.85
75447;BME280;64024;55.820;37.574;2024-01-11T02:12:17;96526.94;;;15.71;37.60
75447;BME280;64024;55.820;37.574;2024-01-11T02:14:44;96507.75;;;15.77;37.64
75447;BME280;64024;55.820;37.574;2024-01-11T02:17:09;96503.53;;;15.85;37.59
75447;BME280;64024;55.820;37.574;2024-01-11T02:19:35;96482.59;;;15.96;37.57
75447;BME280;64024;55.820;37.574;2024-01-11T02:22:06;96497.91;;;16.04;37.45
75447;BME280;64024;55.820;37.574;2024-01-11T02:24:35;96481.88;;;16.12;37.43
75447;BME280;64024;55.820;37.574;2024-01-11T02:27:03;96474.34;;;16.23;37.43
75447;BME280;64024;55.820;37.574;2024-01-11T02:29:31;96474.03;;;16.33;37.44
75447;BME280;64024;55.820;37.574;2024-01-11T02:31:59;96465.72;;;16.44;37.06
75447;BME280;64024;55.820;37.574;2024-01-11T02:34:28;96458.47;;;16.53;37.43
75447;BME280;64024;55.820;37.574;2024-01-11T02:36:55;96456.28;;;16.63;37.00
75447;BME280;64024;55.820;37.574;2024-01-11T02:39:22;96444.47;;;16.73;36.86
75447;BME280;64024;55.820;37.574;2024-01-11T02:41:50;96435.28;;;16.83;36.79
75447;BME280;64024;55.820;37.574;2024-01-11T02:44:17;96428.84;;;16.93;36.47
75447;BME280;64024;55.820;37.574;2024-01-11T02:46:42;96412.41;;;17.03;36.62
75447;BME280;64024;55.820;37.574;2024-01-11T02:49:08;96430.03;;;17.12;36.41
75447;BME280;64024;55.820;37.574;2024-01-11T02:51:34;96413.28;;;17.24;36.54
75447;BME280;64024;55.820;37.574;2024-01-11T02:54:01;96411.06;;;17.35;36.50
75447;BME280;64024;55.820;37.574;2024-01-11T02:56:27;96405.31;;;17.45;36.32
75447;BME280;64024;55.820;37.574;2024-01-11T02:58:53;96394.25;;;17.55;36.23
75447;BME280;64024;55.820;37.574;2024-01-11T03:01:18;96390.72;;;17.63;35.94
75447;BME280;64024;55.820;37.574;2024-01-11T03:03:44;96391.31;;;17.69;36.00
75447;BME280;64024;55.820;37.574;2024-01-11T03:06:10;96377.72;;;17.74;36.44
75447;BME280;64024;55.820;37.574;2024-01-11T03:08:36;96385.94;;;17.78;35.84
75447;BME280;64024;55.820;37.574;2024-01-11T03:11:02;96387.50;;;17.79;36.15
75447;BME280;64024;55.820;37.574;2024-01-11T03:13:28;96350.72;;;17.79;36.10
75447;BME280;64024;55.820;37.574;2024-01-11T03:15:54;96383.38;;;17.81;36.08
75447;BME280;64024;55.820;37.574;2024-01-11T03:18:20;96363.81;;;17.81;36.09
75447;BME280;64024;55.820;37.574;2024-01-11T03:20:46;96363.81;;;17.81;36.39
75447;BME280;64024;55.820;37.574;2024-01-11T03:23:11;96360.34;;;17.80;36.09
75447;BME280;64024;55.820;37.574;2024-01-11T03:25:37;96344.53;;;17.79;36.16
75447;BME280;64024;55.820;37.574;2024-01-11T03:28:03;96340.28;;;17.78;36.35
75447;BME280;64024;55.820;37.574;2024-01-11T03:30:30;96346.75;;;17.77;36.23
75447;BME280;64024;55.820;37.574;2024-01-11T03:32:56;96344.69;;;17.74;36.40
75447;BME280;64024;55.820;37.574;2024-01-11T03:35:22;96339.97;;;17.71;36.41
75447;BME280;64024;55.820;37.574;2024-01-11T03:37:48;96336.81;;;17.69;36.47
75447;BME280;64024;55.820;37.574;2024-01-11T03:40:14;96329.41;;;17.65;36.52
75447;BME280;64024;55.820;37.574;2024-01-11T03:42:41;96316.66;;;17.62;36.62
75447;BME280;64024;55.820;37.574;2024-01-11T03:45:08;96317.59;;;17.58;36.67
75447;BME280;64024;55.820;37.574;2024-01-11T03:47:34;96309.44;;;17.54;36.49
75447;BME280;64024;55.820;37.574;2024-01-11T03:50:00;96312.28;;;17.49;36.74
75447;BME280;64024;55.820;37.574;2024-01-11T03:52:26;96300.31;;;17.47;36.72
75447;BME280;64024;55.820;37.574;2024-01-11T03:54:52;96305.19;;;17.45;36.55
75447;BME280;64024;55.820;37.574;2024-01-11T03:57:17;96300.81;;;17.40;36.58
75447;BME280;64024;55.820;37.574;2024-01-11T03:59:43;96300.66;;;17.36;36.70
75447;BME280;64024;55.820;37.574;2024-01-11T04:02:10;96310.47;;;17.32;36.85
75447;BME280;64024;55.820;37.574;2024-01-11T04:04:36;96306.06;;;17.28;36.79
75447;BME280;64024;55.820;37.574;2024-01-11T04:07:02;96299.78;;;17.24;36.92
75447;BME280;64024;55.820;37.574;2024-01-11T04:09:28;96294.13;;;17.17;36.93
75447;BME280;64024;55.820;37.574;2024-01-11T04:11:54;96296.69;;;17.13;36.83
75447;BME280;64024;55.820;37.574;2024-01-11T04:14:19;96291.16;;;17.09;36.78
75447;BME280;64024;55.820;37.574;2024-01-11T04:16:45;96291.03;;;17.06;37.04
75447;BME280;64024;55.820;37.574;2024-01-11T04:19:11;96288.19;;;17.02;37.13
75447;BME280;64024;55.820;37.574;2024-01-11T04:21:37;96286.47;;;16.98;37.02
75447;BME280;64024;55.820;37.574;2024-01-11T04:24:06;96272.91;;;16.94;36.85
75447;BME280;64024;55.820;37.574;2024-01-11T04:26:35;96273.88;;;16.89;37.03
75447;BME280;64024;55.820;37.574;2024-01-11T04:29:01;96283.69;;;16.85;37.03
75447;BME280;64024;55.820;37.574;2024-01-11T04:31:28;96286.22;;;16.82;37.02
75447;BME280;64024;55.820;37.574;2024-01-11T04:33:53;96282.59;;;16.78;37.13
75447;BME280;64024;55.820;37.574;2024-01-11T04:36:19;96280.53;;;16.75;37.11
75447;BME280;64024;55.820;37.574;2024-01-11T04:38:45;96275.81;;;16.72;37.18
75447;BME280;64024;55.820;37.574;2024-01-11T04:41:12;96264.94;;;16.68;37.14
75447;BME280;64024;55.820;37.574;2024-01-11T04:43:39;96265.56;;;16.65;37.13
75447;BME280;64024;55.820;37.574;2024-01-11T04:46:21;96259.75;;;16.63;37.51
75447;BME280;64024;55.820;37.574;2024-01-11T04:48:48;96263.06;;;16.60;37.33
75447;BME280;64024;55.820;37.574;2024-01-11T04:51:18;96257.53;;;16.56;37.54
75447;BME280;64024;55.820;37.574;2024-01-11T04:53:45;96254.72;;;16.53;37.34
75447;BME280;64024;55.820;37.574;2024-01-11T04:56:13;96249.97;;;16.50;37.50
75447;BME280;64024;55.820;37.574;2024-01-11T04:58:41;96251.44;;;16.47;37.57
75447;BME280;64024;55.820;37.574;2024-01-11T05:01:17;96237.09;;;16.43;37.60
75447;BME280;64024;55.820;37.574;2024-01-11T05:03:45;96241.97;;;16.41;37.49
75447;BME280;64024;55.820;37.574;2024-01-11T05:06:18;96236.44;;;16.37;37.85
75447;BME280;64024;55.820;37.574;2024-01-11T05:08:47;96229.84;;;16.35;37.78
75447;BME280;64024;55.820;37.574;2024-01-11T05:11:17;96218.97;;;16.31;37.78
75447;BME280;64024;55.820;37.574;2024-01-11T05:13:43;96219.59;;;16.28;37.74
75447;BME280;64024;55.820;37.574;2024-01-11T05:16:21;96216.47;;;16.26;37.94
75447;BME280;64024;55.820;37.574;2024-01-11T05:18:48;96216.00;;;16.24;37.84
75447;BME280;64024;55.820;37.574;2024-01-11T05:21:14;96213.94;;;16.21;37.91
75447;BME280;64024;55.820;37.574;2024-01-11T05:23:41;96216.16;;;16.19;37.95
75447;BME280;64024;55.820;37.574;2024-01-11T05:26:12;96208.75;;;16.16;38.09
75447;BME280;64024;55.820;37.574;2024-01-11T05:28:38;96219.78;;;16.14;38.27
75447;BME280;64024;55.820;37.574;2024-01-11T05:31:11;96214.75;;;16.13;38.35
75447;BME280;64024;55.820;37.574;2024-01-11T05:33:38;96207.03;;;16.11;38.51
75447;BME280;64024;55.820;37.574;2024-01-11T05:36:04;96204.69;;;16.10;38.31
75447;BME280;64024;55.820;37.574;2024-01-11T05:38:30;96200.72;;;16.07;38.55
75447;BME280;64024;55.820;37.574;2024-01-11T05:40:57;96194.59;;;16.07;38.93
75447;BME280;64024;55.820;37.574;2024-01-11T05:43:23;96199.78;;;16.03;38.70
75447;BME280;64024;55.820;37.574;2024-01-11T05:45:50;96194.75;;;16.02;39.04
75447;BME280;64024;55.820;37.574;2024-01-11T05:48:16;96191.59;;;16.00;39.02
75447;BME280;64024;55.820;37.574;2024-01-11T05:50:43;96192.72;;;15.99;39.15
75447;BME280;64024;55.820;37.574;2024-01-11T05:53:10;96185.00;;;15.97;39.14
75447;BME280;64024;55.820;37.574;2024-01-11T05:55:36;96181.06;;;15.95;39.25
75447;BME280;64024;55.820;37.574;2024-01-11T05:58:03;96179.50;;;15.94;39.01
75447;BME280;64024;55.820;37.574;2024-01-11T06:00:29;96174.44;;;15.92;39.35
75447;BME280;64024;55.820;37.574;2024-01-11T06:02:55;96174.75;;;15.90;39.18
75447;BME280;64024;55.820;37.574;2024-01-11T06:05:20;96172.72;;;15.87;39.18
75447;BME280;64024;55.820;37.574;2024-01-11T06:07:46;96173.81;;;15.86;39.07
75447;BME280;64024;55.820;37.574;2024-01-11T06:10:14;96173.03;;;15.86;39.19
75447;BME280;64024;55.820;37.574;2024-01-11T06:12:40;96178.38;;;15.86;39.63
75447;BME280;64024;55.820;37.574;2024-01-11T06:15:07;96155.84;;;15.87;39.69
75447;BME280;64024;55.820;37.574;2024-01-11T06:17:33;96154.91;;;15.91;39.42
75447;BME280;64024;55.820;37.574;2024-01-11T06:19:58;96162.78;;;15.97;39.57
75447;BME280;64024;55.820;37.574;2024-01-11T06:22:24;96157.41;;;16.05;39.70
75447;BME280;64024;55.820;37.574;2024-01-11T06:24:50;96161.16;;;16.13;39.59
75447;BME280;64024;55.820;37.574;2024-01-11T06:27:16;96157.38;;;16.23;39.74
75447;BME280;64024;55.820;37.574;2024-01-11T06:29:42;96158.91;;;16.32;39.52
75447;BME280;64024;55.820;37.574;2024-01-11T06:32:08;96154.00;;;16.43;39.65
75447;BME280;64024;55.820;37.574;2024-01-11T06:34:35;96141.78;;;16.54;39.44
75447;BME280;64024;55.820;37.574;2024-01-11T06:37:06;96144.91;;;16.65;39.38
75447;BME280;64024;55.820;37.574;2024-01-11T06:39:32;96154.19;;;16.76;39.28
75447;BME280;64024;55.820;37.574;2024-01-11T06:41:58;96148.94;;;16.88;38.80
75447;BME280;64024;55.820;37.574;2024-01-11T06:44:25;96142.53;;;17.02;39.06
75447;BME280;64024;55.820;37.574;2024-01-11T06:46:50;96144.81;;;17.12;38.71
75447;BME280;64024;55.820;37.574;2024-01-11T06:49:16;96138.44;;;17.25;38.54
75447;BME280;64024;55.820;37.574;2024-01-11T06:51:42;96141.16;;;17.37;38.40
75447;BME280;64024;55.820;37.574;2024-01-11T06:54:08;96136.19;;;17.48;38.19
75447;BME280;64024;55.820;37.574;2024-01-11T06:56:34;96122.03;;;17.60;38.00
75447;BME280;64024;55.820;37.574;2024-01-11T06:59:01;96120.53;;;17.71;37.92
75447;BME280;64024;55.820;37.574;2024-01-11T07:01:27;96120.91;;;17.82;37.49
75447;BME280;64024;55.820;37.574;2024-01-11T07:03:54;96110.09;;;17.91;37.60
75447;BME280;64024;55.820;37.574;2024-01-11T07:06:19;96125.34;;;17.99;37.35
75447;BME280;64024;55.820;37.574;2024-01-11T07:08:45;96119.75;;;18.04;37.34
75447;BME280;64024;55.820;37.574;2024-01-11T07:11:11;96111.03;;;18.07;37.03
75447;BME280;64024;55.820;37.574;2024-01-11T07:13:37;96114.59;;;18.11;36.94
75447;BME280;64024;55.820;37.574;2024-01-11T07:16:03;96102.41;;;18.13;36.62
75447;BME280;64024;55.820;37.574;2024-01-11T07:18:29;96113.59;;;18.16;36.68
75447;BME280;64024;55.820;37.574;2024-01-11T07:20:59;96109.00;;;18.16;36.49
75447;BME280;64024;55.820;37.574;2024-01-11T07:23:26;96104.75;;;18.15;36.45
75447;BME280;64024;55.820;37.574;2024-01-11T07:25:52;96104.44;;;18.17;36.51
75447;BME280;64024;55.820;37.574;2024-01-11T07:28:18;96097.47;;;18.16;36.25
75447;BME280;64024;55.820;37.574;2024-01-11T07:30:45;96101.28;;;18.14;36.40
75447;BME280;64024;55.820;37.574;2024-01-11T07:33:14;96093.22;;;18.14;36.39
75447;BME280;64024;55.820;37.574;2024-01-11T07:35:40;96092.78;;;18.12;36.38
75447;BME280;64024;55.820;37.574;2024-01-11T07:38:06;96094.69;;;18.12;36.61
75447;BME280;64024;55.820;37.574;2024-01-11T07:40:32;96089.66;;;18.10;36.58
75447;BME280;64024;55.820;37.574;2024-01-11T07:42:58;96091.56;;;18.10;36.79
75447;BME280;64024;55.820;37.574;2024-01-11T07:45:24;96081.16;;;18.08;36.55
75447;BME280;64024;55.820;37.574;2024-01-11T07:47:50;96082.25;;;18.07;36.46
75447;BME280;64024;55.820;37.574;2024-01-11T07:50:15;96074.53;;;18.06;36.78
75447;BME280;64024;55.820;37.574;2024-01-11T07:52:41;96068.69;;;18.04;36.74
75447;BME280;64024;55.820;37.574;2024-01-11T07:55:09;96054.03;;;18.01;36.56
75447;BME280;64024;55.820;37.574;2024-01-11T07:57:37;96067.00;;;17.99;36.76
75447;BME280;64024;55.820;37.574;2024-01-11T08:00:04;96059.63;;;17.96;36.80
75447;BME280;64024;55.820;37.574;2024-01-11T08:02:33;96051.44;;;17.93;36.90
75447;BME280;64024;55.820;37.574;2024-01-11T08:04:59;96054.44;;;17.91;36.88
75447;BME280;64024;55.820;37.574;2024-01-11T08:07:28;96059.38;;;17.89;37.14
75447;BME280;64024;55.820;37.574;2024-01-11T08:09:54;96060.03;;;17.86;36.94
75447;BME280;64024;55.820;37.574;2024-01-11T08:12:21;96052.63;;;17.83;36.94
75447;BME280;64024;55.820;37.574;2024-01-11T08:14:46;96045.25;;;17.80;37.01
75447;BME280;64024;55.820;37.574;2024-01-11T08:17:14;96053.97;;;17.77;37.19
75447;BME280;64024;55.820;37.574;2024-01-11T08:19:40;96057.00;;;17.75;37.25
75447;BME280;64024;55.820;37.574;2024-01-11T08:22:06;96031.56;;;17.73;37.36
75447;BME280;64024;55.820;37.574;2024-01-11T08:24:32;96026.53;;;17.71;37.36
75447;BME280;64024;55.820;37.574;2024-01-11T08:27:00;96012.28;;;17.71;37.35
75447;BME280;64024;55.820;37.574;2024-01-11T08:29:26;96019.56;;;17.70;37.47
75447;BME280;64024;55.820;37.574;2024-01-11T08:31:53;96018.78;;;17.70;37.44
75447;BME280;64024;55.820;37.574;2024-01-11T08:34:22;96023.03;;;17.71;37.37
75447;BME280;64024;55.820;37.574;2024-01-11T08:36:48;96024.94;;;17.70;37.55
75447;BME280;64024;55.820;37.574;2024-01-11T08:39:14;96026.84;;;17.70;37.55
75447;BME280;64024;55.820;37.574;2024-01-11T08:41:40;96026.41;;;17.68;37.88
75447;BME280;64024;55.820;37.574;2024-01-11T08:44:07;96039.06;;;17.67;37.79
75447;BME280;64024;55.820;37.574;2024-01-11T08:46:33;96074.28;;;17.65;37.94
75447;BME280;64024;55.820;37.574;2024-01-11T08:49:00;96099.56;;;17.64;37.93
75447;BME280;64024;55.820;37.574;2024-01-11T08:51:29;96074.63;;;17.64;38.12
75447;BME280;64024;55.820;37.574;2024-01-11T08:53:55;96098.31;;;17.62;38.01
75447;BME280;64024;55.820;37.574;2024-01-11T08:56:22;96120.13;;;17.60;37.92
75447;BME280;64024;55.820;37.574;2024-01-11T08:58:48;96121.25;;;17.59;38.06
75447;BME280;64024;55.820;37.574;2024-01-11T09:01:15;96118.88;;;17.58;38.19
75447;BME280;64024;55.820;37.574;2024-01-11T09:03:41;96122.69;;;17.57;38.05
75447;BME280;64024;55.820;37.574;2024-01-11T09:06:07;96114.19;;;17.55;38.35
75447;BME280;64024;55.820;37.574;2024-01-11T09:08:37;96117.97;;;17.54;38.47
75447;BME280;64024;55.820;37.574;2024-01-11T09:11:02;96114.06;;;17.51;38.54
75447;BME280;64024;55.820;37.574;2024-01-11T09:13:29;96117.41;;;17.48;38.64
75447;BME280;64024;55.820;37.574;2024-01-11T09:15:55;96133.84;;;17.47;38.68
75447;BME280;64024;55.820;37.574;2024-01-11T09:18:22;96133.38;;;17.45;38.79
75447;BME280;64024;55.820;37.574;2024-01-11T09:20:48;96158.66;;;17.44;38.70
75447;BME280;64024;55.820;37.574;2024-01-11T09:23:15;96173.84;;;17.39;38.67
75447;BME280;64024;55.820;37.574;2024-01-11T09:25:42;96176.88;;;17.38;38.61
75447;BME280;64024;55.820;37.574;2024-01-11T09:28:08;96172.59;;;17.37;38.66
75447;BME280;64024;55.820;37.574;2024-01-11T09:30:34;96159.03;;;17.33;38.61
75447;BME280;64024;55.820;37.574;2024-01-11T09:33:00;96165.38;;;17.29;38.56
75447;BME280;64024;55.820;37.574;2024-01-11T09:35:26;96182.94;;;17.26;38.58
75447;BME280;64024;55.820;37.574;2024-01-11T09:37:52;96190.06;;;17.22;38.82
75447;BME280;64024;55.820;37.574;2024-01-11T09:40:18;96196.56;;;17.21;38.96
75447;BME280;64024;55.820;37.574;2024-01-11T09:42:44;96204.91;;;17.20;38.75
75447;BME280;64024;55.820;37.574;2024-01-11T09:45:13;96221.66;;;17.17;38.66
75447;BME280;64024;55.820;37.574;2024-01-11T09:47:41;96209.38;;;17.15;38.60
75447;BME280;64024;55.820;37.574;2024-01-11T09:50:08;96208.91;;;17.13;38.40
75447;BME280;64024;55.820;37.574;2024-01-11T09:52:34;96208.44;;;17.11;38.31
75447;BME280;64024;55.820;37.574;2024-01-11T09:55:01;96203.72;;;17.08;38.21
75447;BME280;64024;55.820;37.574;2024-01-11T09:57:29;96210.53;;;17.06;38.01
75447;BME280;64024;55.820;37.574;2024-01-11T09:59:57;96205.47;;;17.04;38.30
75447;BME280;64024;55.820;37.574;2024-01-11T10:02:23;96245.25;;;17.02;38.15
75447;BME280;64024;55.820;37.574;2024-01-11T10:04:52;96231.84;;;17.02;38.05
75447;BME280;64024;55.820;37.574;2024-01-11T10:07:21;96248.91;;;16.98;38.17
75447;BME280;64024;55.820;37.574;2024-01-11T10:09:47;96220.53;;;16.97;38.01
75447;BME280;64024;55.820;37.574;2024-01-11T10:12:14;96238.03;;;16.94;37.73
75447;BME280;64024;55.820;37.574;2024-01-11T10:14:40;96243.56;;;16.98;37.84
75447;BME280;64024;55.820;37.574;2024-01-11T10:17:07;96254.00;;;16.90;37.53
75447;BME280;64024;55.820;37.574;2024-01-11T10:19:33;96253.69;;;16.83;37.60
75447;BME280;64024;55.820;37.574;2024-01-11T10:21:59;96275.03;;;16.80;37.42
75447;BME280;64024;55.820;37.574;2024-01-11T10:24:25;96272.19;;;16.76;37.34
75447;BME280;64024;55.820;37.574;2024-01-11T10:26:56;96269.63;;;16.71;37.28
75447;BME280;64024;55.820;37.574;2024-01-11T10:29:22;96258.78;;;16.68;37.27
75447;BME280;64024;55.820;37.574;2024-01-11T10:31:49;96285.91;;;16.66;37.41
75447;BME280;64024;55.820;37.574;2024-01-11T10:34:16;96283.88;;;16.63;37.38
75447;BME280;64024;55.820;37.574;2024-01-11T10:36:42;96310.22;;;16.61;37.62
75447;BME280;64024;55.820;37.574;2024-01-11T10:39:09;96332.78;;;16.60;37.63
75447;BME280;64024;55.820;37.574;2024-01-11T10:41:40;96313.53;;;16.58;37.34
75447;BME280;64024;55.820;37.574;2024-01-11T10:44:21;96334.19;;;16.57;37.45
75447;BME280;64024;55.820;37.574;2024-01-11T10:46:49;96349.81;;;16.55;37.26
75447;BME280;64024;55.820;37.574;2024-01-11T10:49:18;96370.47;;;16.55;37.47
75447;BME280;64024;55.820;37.574;2024-01-11T10:51:53;96368.09;;;16.53;37.34
75447;BME280;64024;55.820;37.574;2024-01-11T10:54:24;96361.16;;;16.52;37.38
75447;BME280;64024;55.820;37.574;2024-01-11T10:56:52;96384.03;;;16.50;37.19
75447;BME280;64024;55.820;37.574;2024-01-11T10:59:20;96398.06;;;16.47;37.09
75447;BME280;64024;55.820;37.574;2024-01-11T11:01:52;96399.81;;;16.43;36.98
75447;BME280;64024;55.820;37.574;2024-01-11T11:04:21;96405.00;;;16.39;37.12
75447;BME280;64024;55.820;37.574;2024-01-11T11:06:50;96440.94;;;16.38;37.11
75447;BME280;64024;55.820;37.574;2024-01-11T11:09:17;96424.84;;;16.38;36.88
75447;BME280;64024;55.820;37.574;2024-01-11T11:11:45;96430.84;;;16.35;36.75
75447;BME280;64024;55.820;37.574;2024-01-11T11:14:14;96431.47;;;16.32;36.98
75447;BME280;64024;55.820;37.574;2024-01-11T11:16:41;96417.91;;;16.28;36.94
75447;BME280;64024;55.820;37.574;2024-01-11T11:19:08;96462.22;;;16.26;36.73
75447;BME280;64024;55.820;37.574;2024-01-11T11:21:43;96470.09;;;16.22;37.01
75447;BME280;64024;55.820;37.574;2024-01-11T11:24:12;96463.78;;;16.18;36.71
75447;BME280;64024;55.820;37.574;2024-01-11T11:26:40;96474.00;;;16.16;36.63
75447;BME280;64024;55.820;37.574;2024-01-11T11:29:06;96484.56;;;16.12;36.62
75447;BME280;64024;55.820;37.574;2024-01-11T11:31:42;96480.31;;;16.11;36.45
75447;BME280;64024;55.820;37.574;2024-01-11T11:34:19;96495.09;;;16.09;36.70
75447;BME280;64024;55.820;37.574;2024-01-11T11:36:50;96502.66;;;16.07;36.68
75447;BME280;64024;55.820;37.574;2024-01-11T11:39:23;96496.81;;;16.05;36.35
75447;BME280;64024;55.820;37.574;2024-01-11T11:41:49;96508.16;;;16.02;36.81
75447;BME280;64024;55.820;37.574;2024-01-11T11:44:15;96519.50;;;15.99;36.83
75447;BME280;64024;55.820;37.574;2024-01-11T11:46:41;96517.44;;;15.96;36.74
75447;BME280;64024;55.820;37.574;2024-01-11T11:49:09;96531.47;;;15.93;37.00
75447;BME280;64024;55.820;37.574;2024-01-11T11:51:39;96527.81;;;15.88;36.81
75447;BME280;64024;55.820;37.574;2024-01-11T11:54:07;96536.47;;;15.85;36.51
75447;BME280;64024;55.820;37.574;2024-01-11T11:56:35;96532.81;;;15.81;37.00
75447;BME280;64024;55.820;37.574;2024-01-11T11:59:02;96541.13;;;15.80;36.86
75447;BME280;64024;55.820;37.574;2024-01-11T12:01:30;96544.47;;;15.77;36.55
75447;BME280;64024;55.820;37.574;2024-01-11T12:03:57;96544.28;;;15.73;37.11
75447;BME280;64024;55.820;37.574;2024-01-11T12:06:24;96547.56;;;15.70;36.80
75447;BME280;64024;55.820;37.574;2024-01-11T12:08:52;96556.19;;;15.67;37.06
75447;BME280;64024;55.820;37.574;2024-01-11T12:11:19;96574.47;;;15.65;36.98
75447;BME280;64024;55.820;37.574;2024-01-11T12:13:49;96572.38;;;15.62;37.31
75447;BME280;64024;55.820;37.574;2024-01-11T12:16:16;96572.69;;;15.60;37.17
75447;BME280;64024;55.820;37.574;2024-01-11T12:18:41;96570.78;;;15.61;37.14
75447;BME280;64024;55.820;37.574;2024-01-11T12:21:08;96581.97;;;15.63;36.98
75447;BME280;64024;55.820;37.574;2024-01-11T12:23:34;96574.47;;;15.65;36.88
75447;BME280;64024;55.820;37.574;2024-01-11T12:26:03;96580.00;;;15.69;36.63
75447;BME280;64024;55.820;37.574;2024-01-11T12:28:34;96582.22;;;15.75;36.62
75447;BME280;64024;55.820;37.574;2024-01-11T12:31:00;96586.66;;;15.80;36.38
75447;BME280;64024;55.820;37.574;2024-01-11T12:33:26;96628.31;;;15.86;36.01
75447;BME280;64024;55.820;37.574;2024-01-11T12:35:53;96601.88;;;15.93;36.07
75447;BME280;64024;55.820;37.574;2024-01-11T12:38:19;96609.19;;;16.01;35.45
75447;BME280;64024;55.820;37.574;2024-01-11T12:40:46;96608.72;;;16.08;35.45
75447;BME280;64024;55.820;37.574;2024-01-11T12:43:12;96610.66;;;16.16;35.16
75447;BME280;64024;55.820;37.574;2024-01-11T12:45:39;96603.75;;;16.24;34.87
75447;BME280;64024;55.820;37.574;2024-01-11T12:48:08;96625.22;;;16.32;34.49